sensor_id;sensor_type;location;lat;lon;timestamp;P1;durP1;ratioP1;P2;durP2;ratioP2
5225;SDS011;2632;51.666;7.146;2023-02-26T00:01:03;2.83;;;0.80;;
5225;SDS011;2632;51.666;7.146;2023-02-26T00:03:38;3.13;;;0.90;;
5225;SDS011;2632;51.666;7.146;2023-02-26T00:06:06;5.37;;;1.10;;
5225;SDS011;2632;51.666;7.146;2023-02-26T00:08:33;1.77;;;1.00;;
5225;SDS011;2632;51.666;7.146;2023-02-26T00:11:00;3.20;;;1.10;;
5225;SDS011;2632;51.666;7.146;2023-02-26T00:13:28;4.20;;;1.23;;
5225;SDS011;2632;51.666;7.146;2023-02-26T00:15:55;11.23;;;1.00;;
5225;SDS011;2632;51.666;7.146;2023-02-26T00:18:25;1.57;;;0.90;;
5225;SDS011;2632;51.666;7.146;2023-02-26T00:20:52;4.83;;;1.00;;
5225;SDS011;2632;51.666;7.146;2023-02-26T00:23:19;2.83;;;1.00;;
5225;SDS011;2632;51.666;7.146;2023-02-26T00:25:46;1.00;;;0.80;;
5225;SDS011;2632;51.666;7.146;2023-02-26T00:28:13;7.90;;;0.90;;
5225;SDS011;2632;51.666;7.146;2023-02-26T00:30:40;2.20;;;1.10;;
5225;SDS011;2632;51.666;7.146;2023-02-26T00:33:07;4.60;;;0.90;;
5225;SDS011;2632;51.666;7.146;2023-02-26T00:35:34;2.50;;;0.80;;
5225;SDS011;2632;51.666;7.146;2023-02-26T00:38:18;6.70;;;1.20;;
5225;SDS011;2632;51.666;7.146;2023-02-26T00:40:46;3.37;;;1.47;;
5225;SDS011;2632;51.666;7.146;2023-02-26T00:45:43;3.17;;;0.90;;
5225;SDS011;2632;51.666;7.146;2023-02-26T00:48:44;3.07;;;0.80;;
5225;SDS011;2632;51.666;7.146;2023-02-26T00:51:50;2.50;;;0.80;;
5225;SDS011;2632;51.666;7.146;2023-02-26T00:54:24;2.27;;;0.80;;
5225;SDS011;2632;51.666;7.146;2023-02-26T00:56:53;3.47;;;0.90;;
5225;SDS011;2632;51.666;7.146;2023-02-26T00:59:21;2.00;;;1.00;;
5225;SDS011;2632;51.666;7.146;2023-02-26T01:01:48;1.40;;;1.07;;
5225;SDS011;2632;51.666;7.146;2023-02-26T01:04:16;3.23;;;0.90;;
5225;SDS011;2632;51.666;7.146;2023-02-26T01:06:49;2.47;;;0.77;;
5225;SDS011;2632;51.666;7.146;2023-02-26T01:09:28;2.10;;;1.10;;
5225;SDS011;2632;51.666;7.146;2023-02-26T01:11:57;2.00;;;0.90;;
5225;SDS011;2632;51.666;7.146;2023-02-26T01:14:29;1.90;;;0.73;;
5225;SDS011;2632;51.666;7.146;2023-02-26T01:17:01;3.90;;;1.10;;
5225;SDS011;2632;51.666;7.146;2023-02-26T01:19:40;2.93;;;0.90;;
5225;SDS011;2632;51.666;7.146;2023-02-26T01:22:21;2.87;;;0.97;;
5225;SDS011;2632;51.666;7.146;2023-02-26T01:24:55;1.90;;;1.30;;
5225;SDS011;2632;51.666;7.146;2023-02-26T01:27:27;1.53;;;0.90;;
5225;SDS011;2632;51.666;7.146;2023-02-26T01:29:54;1.40;;;1.10;;
5225;SDS011;2632;51.666;7.146;2023-02-26T01:35:19;2.50;;;0.90;;
5225;SDS011;2632;51.666;7.146;2023-02-26T01:37:55;3.33;;;1.27;;
5225;SDS011;2632;51.666;7.146;2023-02-26T01:46:47;2.60;;;0.93;;
5225;SDS011;2632;51.666;7.146;2023-02-26T01:49:38;1.50;;;0.80;;
5225;SDS011;2632;51.666;7.146;2023-02-26T01:52:06;2.90;;;0.93;;
5225;SDS011;2632;51.666;7.146;2023-02-26T01:54:54;1.87;;;1.00;;
5225;SDS011;2632;51.666;7.146;2023-02-26T01:57:20;1.90;;;0.77;;
5225;SDS011;2632;51.666;7.146;2023-02-26T01:59:49;3.83;;;0.90;;
5225;SDS011;2632;51.666;7.146;2023-02-26T02:02:21;9.70;;;0.90;;
5225;SDS011;2632;51.666;7.146;2023-02-26T02:04:50;1.77;;;0.87;;
5225;SDS011;2632;51.666;7.146;2023-02-26T02:07:17;4.00;;;1.20;;
5225;SDS011;2632;51.666;7.146;2023-02-26T02:09:44;1.93;;;0.90;;
5225;SDS011;2632;51.666;7.146;2023-02-26T02:12:31;4.67;;;0.90;;
5225;SDS011;2632;51.666;7.146;2023-02-26T02:23:39;3.33;;;0.83;;
5225;SDS011;2632;51.666;7.146;2023-02-26T02:31:34;3.77;;;0.93;;
5225;SDS011;2632;51.666;7.146;2023-02-26T02:36:55;5.10;;;1.00;;
5225;SDS011;2632;51.666;7.146;2023-02-26T02:39:31;7.50;;;0.93;;
5225;SDS011;2632;51.666;7.146;2023-02-26T02:42:32;2.10;;;0.83;;
5225;SDS011;2632;51.666;7.146;2023-02-26T02:45:08;1.00;;;0.90;;
5225;SDS011;2632;51.666;7.146;2023-02-26T02:47:40;3.17;;;0.83;;
5225;SDS011;2632;51.666;7.146;2023-02-26T02:50:13;4.90;;;1.03;;
5225;SDS011;2632;51.666;7.146;2023-02-26T02:53:03;2.07;;;0.90;;
5225;SDS011;2632;51.666;7.146;2023-02-26T02:55:43;2.07;;;0.83;;
5225;SDS011;2632;51.666;7.146;2023-02-26T02:58:28;4.27;;;1.10;;
5225;SDS011;2632;51.666;7.146;2023-02-26T03:01:00;2.80;;;1.20;;
5225;SDS011;2632;51.666;7.146;2023-02-26T03:06:02;2.07;;;1.00;;
5225;SDS011;2632;51.666;7.146;2023-02-26T03:08:30;2.20;;;0.70;;
5225;SDS011;2632;51.666;7.146;2023-02-26T03:11:02;2.20;;;1.00;;
5225;SDS011;2632;51.666;7.146;2023-02-26T03:13:29;1.90;;;0.97;;
5225;SDS011;2632;51.666;7.146;2023-02-26T03:16:12;1.63;;;1.20;;
5225;SDS011;2632;51.666;7.146;2023-02-26T03:18:46;1.80;;;1.00;;
5225;SDS011;2632;51.666;7.146;2023-02-26T03:21:28;2.77;;;1.10;;
5225;SDS011;2632;51.666;7.146;2023-02-26T03:26:43;7.40;;;1.63;;
5225;SDS011;2632;51.666;7.146;2023-02-26T03:29:19;1.60;;;0.77;;
5225;SDS011;2632;51.666;7.146;2023-02-26T03:31:58;5.00;;;1.40;;
5225;SDS011;2632;51.666;7.146;2023-02-26T03:34:40;3.23;;;1.20;;
5225;SDS011;2632;51.666;7.146;2023-02-26T03:37:22;3.07;;;1.00;;
5225;SDS011;2632;51.666;7.146;2023-02-26T03:40:10;2.20;;;1.00;;
5225;SDS011;2632;51.666;7.146;2023-02-26T03:42:51;6.60;;;1.50;;
5225;SDS011;2632;51.666;7.146;2023-02-26T03:45:22;3.47;;;1.07;;
5225;SDS011;2632;51.666;7.146;2023-02-26T03:47:54;2.43;;;0.70;;
5225;SDS011;2632;51.666;7.146;2023-02-26T03:53:11;3.77;;;1.23;;
5225;SDS011;2632;51.666;7.146;2023-02-26T03:55:45;4.63;;;1.03;;
5225;SDS011;2632;51.666;7.146;2023-02-26T03:58:15;2.17;;;0.93;;
5225;SDS011;2632;51.666;7.146;2023-02-26T04:00:43;2.03;;;0.87;;
5225;SDS011;2632;51.666;7.146;2023-02-26T04:06:08;3.40;;;1.87;;
5225;SDS011;2632;51.666;7.146;2023-02-26T04:08:35;4.93;;;1.20;;
5225;SDS011;2632;51.666;7.146;2023-02-26T04:11:05;3.17;;;1.40;;
5225;SDS011;2632;51.666;7.146;2023-02-26T04:13:35;3.83;;;1.00;;
5225;SDS011;2632;51.666;7.146;2023-02-26T04:16:02;1.73;;;1.03;;
5225;SDS011;2632;51.666;7.146;2023-02-26T04:18:29;1.53;;;0.80;;
5225;SDS011;2632;51.666;7.146;2023-02-26T04:20:55;3.10;;;1.03;;
5225;SDS011;2632;51.666;7.146;2023-02-26T04:23:22;1.00;;;0.87;;
5225;SDS011;2632;51.666;7.146;2023-02-26T04:25:49;2.20;;;0.90;;
5225;SDS011;2632;51.666;7.146;2023-02-26T04:28:15;1.87;;;0.80;;
5225;SDS011;2632;51.666;7.146;2023-02-26T04:30:42;1.30;;;0.80;;
5225;SDS011;2632;51.666;7.146;2023-02-26T04:33:09;2.97;;;1.20;;
5225;SDS011;2632;51.666;7.146;2023-02-26T04:35:36;3.30;;;0.90;;
5225;SDS011;2632;51.666;7.146;2023-02-26T04:38:02;2.20;;;0.97;;
5225;SDS011;2632;51.666;7.146;2023-02-26T04:40:29;1.17;;;0.73;;
5225;SDS011;2632;51.666;7.146;2023-02-26T04:42:56;1.80;;;0.63;;
5225;SDS011;2632;51.666;7.146;2023-02-26T04:45:22;2.30;;;0.80;;
5225;SDS011;2632;51.666;7.146;2023-02-26T04:47:49;1.00;;;0.73;;
5225;SDS011;2632;51.666;7.146;2023-02-26T04:50:16;5.10;;;1.43;;
5225;SDS011;2632;51.666;7.146;2023-02-26T04:52:42;2.43;;;0.70;;
5225;SDS011;2632;51.666;7.146;2023-02-26T04:55:09;5.43;;;0.97;;
5225;SDS011;2632;51.666;7.146;2023-02-26T04:57:35;1.47;;;0.77;;
5225;SDS011;2632;51.666;7.146;2023-02-26T05:00:02;2.40;;;0.90;;
5225;SDS011;2632;51.666;7.146;2023-02-26T05:02:32;6.20;;;1.73;;
5225;SDS011;2632;51.666;7.146;2023-02-26T05:04:59;5.03;;;1.10;;
5225;SDS011;2632;51.666;7.146;2023-02-26T05:07:26;4.03;;;1.03;;
5225;SDS011;2632;51.666;7.146;2023-02-26T05:09:52;2.17;;;0.93;;
5225;SDS011;2632;51.666;7.146;2023-02-26T05:12:19;4.63;;;1.00;;
5225;SDS011;2632;51.666;7.146;2023-02-26T05:14:45;1.53;;;0.80;;
5225;SDS011;2632;51.666;7.146;2023-02-26T05:17:12;4.20;;;1.00;;
5225;SDS011;2632;51.666;7.146;2023-02-26T05:19:39;2.00;;;0.70;;
5225;SDS011;2632;51.666;7.146;2023-02-26T05:22:05;1.80;;;0.80;;
5225;SDS011;2632;51.666;7.146;2023-02-26T05:24:32;5.30;;;0.87;;
5225;SDS011;2632;51.666;7.146;2023-02-26T05:26:58;1.07;;;0.70;;
5225;SDS011;2632;51.666;7.146;2023-02-26T05:29:25;2.50;;;1.00;;
5225;SDS011;2632;51.666;7.146;2023-02-26T05:31:52;0.63;;;0.60;;
5225;SDS011;2632;51.666;7.146;2023-02-26T05:34:19;2.70;;;1.03;;
5225;SDS011;2632;51.666;7.146;2023-02-26T05:36:45;4.33;;;1.00;;
5225;SDS011;2632;51.666;7.146;2023-02-26T05:39:12;2.00;;;0.60;;
5225;SDS011;2632;51.666;7.146;2023-02-26T05:41:38;3.83;;;1.20;;
5225;SDS011;2632;51.666;7.146;2023-02-26T05:44:05;3.23;;;0.97;;
5225;SDS011;2632;51.666;7.146;2023-02-26T05:46:33;2.53;;;0.90;;
5225;SDS011;2632;51.666;7.146;2023-02-26T05:49:00;6.53;;;1.00;;
5225;SDS011;2632;51.666;7.146;2023-02-26T05:51:26;5.20;;;1.03;;
5225;SDS011;2632;51.666;7.146;2023-02-26T05:53:54;1.70;;;1.00;;
5225;SDS011;2632;51.666;7.146;2023-02-26T05:56:20;2.20;;;0.80;;
5225;SDS011;2632;51.666;7.146;2023-02-26T05:58:48;2.53;;;1.07;;
5225;SDS011;2632;51.666;7.146;2023-02-26T06:01:14;1.93;;;1.07;;
5225;SDS011;2632;51.666;7.146;2023-02-26T06:03:41;4.03;;;1.07;;
5225;SDS011;2632;51.666;7.146;2023-02-26T06:06:10;1.37;;;0.83;;
5225;SDS011;2632;51.666;7.146;2023-02-26T06:08:37;1.63;;;1.03;;
5225;SDS011;2632;51.666;7.146;2023-02-26T06:11:04;1.57;;;0.80;;
5225;SDS011;2632;51.666;7.146;2023-02-26T06:13:31;1.07;;;0.83;;
5225;SDS011;2632;51.666;7.146;2023-02-26T06:15:57;2.50;;;1.23;;
5225;SDS011;2632;51.666;7.146;2023-02-26T06:18:24;2.90;;;1.20;;
5225;SDS011;2632;51.666;7.146;2023-02-26T06:20:51;1.63;;;0.90;;
5225;SDS011;2632;51.666;7.146;2023-02-26T06:23:17;1.20;;;0.80;;
5225;SDS011;2632;51.666;7.146;2023-02-26T06:25:44;1.90;;;1.00;;
5225;SDS011;2632;51.666;7.146;2023-02-26T06:28:11;5.00;;;1.00;;
5225;SDS011;2632;51.666;7.146;2023-02-26T06:30:37;2.53;;;0.80;;
5225;SDS011;2632;51.666;7.146;2023-02-26T06:33:04;1.83;;;0.80;;
5225;SDS011;2632;51.666;7.146;2023-02-26T06:35:31;1.80;;;0.67;;
5225;SDS011;2632;51.666;7.146;2023-02-26T06:37:58;6.13;;;1.00;;
5225;SDS011;2632;51.666;7.146;2023-02-26T06:40:24;2.20;;;0.70;;
5225;SDS011;2632;51.666;7.146;2023-02-26T06:42:51;3.30;;;0.90;;
5225;SDS011;2632;51.666;7.146;2023-02-26T06:45:18;6.20;;;1.00;;
5225;SDS011;2632;51.666;7.146;2023-02-26T06:47:44;2.03;;;0.77;;
5225;SDS011;2632;51.666;7.146;2023-02-26T06:50:11;2.10;;;1.10;;
5225;SDS011;2632;51.666;7.146;2023-02-26T06:52:37;2.83;;;1.10;;
5225;SDS011;2632;51.666;7.146;2023-02-26T06:55:04;3.90;;;0.90;;
5225;SDS011;2632;51.666;7.146;2023-02-26T06:57:31;3.47;;;1.57;;
5225;SDS011;2632;51.666;7.146;2023-02-26T06:59:58;1.70;;;1.00;;
5225;SDS011;2632;51.666;7.146;2023-02-26T07:02:26;2.60;;;0.70;;
5225;SDS011;2632;51.666;7.146;2023-02-26T07:04:52;3.87;;;1.13;;
5225;SDS011;2632;51.666;7.146;2023-02-26T07:07:19;2.80;;;0.90;;
5225;SDS011;2632;51.666;7.146;2023-02-26T07:09:46;1.27;;;0.90;;
5225;SDS011;2632;51.666;7.146;2023-02-26T07:12:12;3.37;;;0.83;;
5225;SDS011;2632;51.666;7.146;2023-02-26T07:14:39;1.73;;;0.90;;
5225;SDS011;2632;51.666;7.146;2023-02-26T07:17:08;3.70;;;0.80;;
5225;SDS011;2632;51.666;7.146;2023-02-26T07:19:35;1.13;;;0.73;;
5225;SDS011;2632;51.666;7.146;2023-02-26T07:22:02;2.50;;;1.00;;
5225;SDS011;2632;51.666;7.146;2023-02-26T07:24:28;1.00;;;0.70;;
5225;SDS011;2632;51.666;7.146;2023-02-26T07:26:55;3.07;;;0.90;;
5225;SDS011;2632;51.666;7.146;2023-02-26T07:29:21;1.40;;;0.80;;
5225;SDS011;2632;51.666;7.146;2023-02-26T07:31:48;2.70;;;0.90;;
5225;SDS011;2632;51.666;7.146;2023-02-26T07:34:15;1.33;;;0.90;;
5225;SDS011;2632;51.666;7.146;2023-02-26T07:36:41;2.20;;;0.80;;
5225;SDS011;2632;51.666;7.146;2023-02-26T07:39:09;2.10;;;0.80;;
5225;SDS011;2632;51.666;7.146;2023-02-26T07:41:36;2.40;;;0.83;;
5225;SDS011;2632;51.666;7.146;2023-02-26T07:44:02;1.13;;;0.60;;
5225;SDS011;2632;51.666;7.146;2023-02-26T07:46:29;1.33;;;0.80;;
5225;SDS011;2632;51.666;7.146;2023-02-26T07:48:56;4.40;;;1.00;;
5225;SDS011;2632;51.666;7.146;2023-02-26T07:51:22;1.30;;;0.67;;
5225;SDS011;2632;51.666;7.146;2023-02-26T07:53:50;2.60;;;1.00;;
5225;SDS011;2632;51.666;7.146;2023-02-26T07:56:16;3.97;;;1.03;;
5225;SDS011;2632;51.666;7.146;2023-02-26T07:58:43;2.57;;;0.90;;
5225;SDS011;2632;51.666;7.146;2023-02-26T08:01:09;1.87;;;1.23;;
5225;SDS011;2632;51.666;7.146;2023-02-26T08:03:36;3.27;;;1.00;;
5225;SDS011;2632;51.666;7.146;2023-02-26T08:06:03;1.63;;;1.03;;
5225;SDS011;2632;51.666;7.146;2023-02-26T08:08:31;1.90;;;0.93;;
5225;SDS011;2632;51.666;7.146;2023-02-26T08:10:58;1.60;;;0.90;;
5225;SDS011;2632;51.666;7.146;2023-02-26T08:13:25;1.80;;;0.80;;
5225;SDS011;2632;51.666;7.146;2023-02-26T08:15:52;1.73;;;0.97;;
5225;SDS011;2632;51.666;7.146;2023-02-26T08:18:19;2.20;;;1.00;;
5225;SDS011;2632;51.666;7.146;2023-02-26T08:20:46;2.70;;;0.83;;
5225;SDS011;2632;51.666;7.146;2023-02-26T08:23:12;2.30;;;0.87;;
5225;SDS011;2632;51.666;7.146;2023-02-26T08:25:39;1.87;;;0.70;;
5225;SDS011;2632;51.666;7.146;2023-02-26T08:28:06;5.00;;;0.90;;
5225;SDS011;2632;51.666;7.146;2023-02-26T08:30:32;3.37;;;0.80;;
5225;SDS011;2632;51.666;7.146;2023-02-26T08:32:59;2.17;;;0.70;;
5225;SDS011;2632;51.666;7.146;2023-02-26T08:35:26;2.03;;;0.80;;
5225;SDS011;2632;51.666;7.146;2023-02-26T08:37:52;0.90;;;0.70;;
5225;SDS011;2632;51.666;7.146;2023-02-26T08:40:19;1.70;;;0.80;;
5225;SDS011;2632;51.666;7.146;2023-02-26T08:42:46;3.43;;;0.77;;
5225;SDS011;2632;51.666;7.146;2023-02-26T08:45:13;3.13;;;0.80;;
5225;SDS011;2632;51.666;7.146;2023-02-26T08:47:40;4.03;;;0.90;;
5225;SDS011;2632;51.666;7.146;2023-02-26T08:50:21;0.90;;;0.80;;
5225;SDS011;2632;51.666;7.146;2023-02-26T08:52:48;2.30;;;0.63;;
5225;SDS011;2632;51.666;7.146;2023-02-26T08:55:15;2.33;;;0.70;;
5225;SDS011;2632;51.666;7.146;2023-02-26T08:57:42;2.10;;;0.60;;
5225;SDS011;2632;51.666;7.146;2023-02-26T09:00:09;1.10;;;0.73;;
5225;SDS011;2632;51.666;7.146;2023-02-26T09:02:36;1.23;;;0.70;;
5225;SDS011;2632;51.666;7.146;2023-02-26T09:05:03;1.63;;;0.70;;
5225;SDS011;2632;51.666;7.146;2023-02-26T09:07:30;1.17;;;0.70;;
5225;SDS011;2632;51.666;7.146;2023-02-26T09:09:57;3.47;;;0.80;;
5225;SDS011;2632;51.666;7.146;2023-02-26T09:12:24;1.30;;;0.93;;
5225;SDS011;2632;51.666;7.146;2023-02-26T09:14:51;1.70;;;1.00;;
5225;SDS011;2632;51.666;7.146;2023-02-26T09:17:17;5.07;;;0.87;;
5225;SDS011;2632;51.666;7.146;2023-02-26T09:19:44;1.63;;;1.03;;
5225;SDS011;2632;51.666;7.146;2023-02-26T09:22:11;1.30;;;0.80;;
5225;SDS011;2632;51.666;7.146;2023-02-26T09:24:37;2.17;;;0.83;;
5225;SDS011;2632;51.666;7.146;2023-02-26T09:27:04;1.20;;;0.70;;
5225;SDS011;2632;51.666;7.146;2023-02-26T09:29:31;0.73;;;0.60;;
5225;SDS011;2632;51.666;7.146;2023-02-26T09:31:57;1.13;;;0.80;;
5225;SDS011;2632;51.666;7.146;2023-02-26T09:34:24;1.10;;;1.00;;
5225;SDS011;2632;51.666;7.146;2023-02-26T09:36:51;1.90;;;1.20;;
5225;SDS011;2632;51.666;7.146;2023-02-26T09:39:17;1.27;;;0.80;;
5225;SDS011;2632;51.666;7.146;2023-02-26T09:41:48;1.90;;;0.73;;
5225;SDS011;2632;51.666;7.146;2023-02-26T09:44:26;2.00;;;0.83;;
5225;SDS011;2632;51.666;7.146;2023-02-26T09:47:01;14.40;;;6.17;;
5225;SDS011;2632;51.666;7.146;2023-02-26T09:50:01;5.23;;;3.00;;
5225;SDS011;2632;51.666;7.146;2023-02-26T09:55:26;2.10;;;0.90;;
5225;SDS011;2632;51.666;7.146;2023-02-26T09:58:01;5.57;;;1.27;;
5225;SDS011;2632;51.666;7.146;2023-02-26T10:03:18;2.63;;;1.63;;
5225;SDS011;2632;51.666;7.146;2023-02-26T10:08:42;2.27;;;0.93;;
5225;SDS011;2632;51.666;7.146;2023-02-26T10:11:24;3.77;;;2.17;;
5225;SDS011;2632;51.666;7.146;2023-02-26T10:14:06;1.27;;;0.93;;
5225;SDS011;2632;51.666;7.146;2023-02-26T10:16:40;2.47;;;1.00;;
5225;SDS011;2632;51.666;7.146;2023-02-26T10:19:10;1.07;;;0.70;;
5225;SDS011;2632;51.666;7.146;2023-02-26T10:21:46;1.40;;;0.60;;
5225;SDS011;2632;51.666;7.146;2023-02-26T10:24:28;6.00;;;0.73;;
5225;SDS011;2632;51.666;7.146;2023-02-26T10:27:20;2.23;;;0.97;;
5225;SDS011;2632;51.666;7.146;2023-02-26T10:32:29;2.90;;;0.80;;
5225;SDS011;2632;51.666;7.146;2023-02-26T10:35:05;4.50;;;1.07;;
5225;SDS011;2632;51.666;7.146;2023-02-26T10:46:04;1.33;;;0.73;;
5225;SDS011;2632;51.666;7.146;2023-02-26T10:51:37;1.07;;;0.60;;
5225;SDS011;2632;51.666;7.146;2023-02-26T10:56:54;2.20;;;0.70;;
5225;SDS011;2632;51.666;7.146;2023-02-26T10:59:20;2.17;;;0.73;;
5225;SDS011;2632;51.666;7.146;2023-02-26T11:01:48;3.27;;;1.07;;
5225;SDS011;2632;51.666;7.146;2023-02-26T11:04:17;0.80;;;0.67;;
5225;SDS011;2632;51.666;7.146;2023-02-26T11:06:52;1.23;;;0.73;;
5225;SDS011;2632;51.666;7.146;2023-02-26T11:09:36;1.33;;;0.50;;
5225;SDS011;2632;51.666;7.146;2023-02-26T11:12:13;2.53;;;0.63;;
5225;SDS011;2632;51.666;7.146;2023-02-26T11:14:41;2.67;;;1.30;;
5225;SDS011;2632;51.666;7.146;2023-02-26T11:17:13;1.40;;;0.70;;
5225;SDS011;2632;51.666;7.146;2023-02-26T11:20:12;2.00;;;0.63;;
5225;SDS011;2632;51.666;7.146;2023-02-26T11:22:46;3.83;;;0.77;;
5225;SDS011;2632;51.666;7.146;2023-02-26T11:25:19;3.63;;;0.90;;
5225;SDS011;2632;51.666;7.146;2023-02-26T11:27:58;1.50;;;1.00;;
5225;SDS011;2632;51.666;7.146;2023-02-26T11:30:29;0.60;;;0.60;;
5225;SDS011;2632;51.666;7.146;2023-02-26T11:33:03;2.57;;;1.70;;
5225;SDS011;2632;51.666;7.146;2023-02-26T11:35:38;1.83;;;0.90;;
5225;SDS011;2632;51.666;7.146;2023-02-26T11:38:05;1.33;;;0.90;;
5225;SDS011;2632;51.666;7.146;2023-02-26T11:40:42;1.37;;;0.93;;
5225;SDS011;2632;51.666;7.146;2023-02-26T11:43:14;2.10;;;0.93;;
5225;SDS011;2632;51.666;7.146;2023-02-26T11:45:45;0.80;;;0.60;;
5225;SDS011;2632;51.666;7.146;2023-02-26T11:48:18;0.80;;;0.60;;
5225;SDS011;2632;51.666;7.146;2023-02-26T11:50:52;1.07;;;0.70;;
5225;SDS011;2632;51.666;7.146;2023-02-26T11:56:03;0.90;;;0.73;;
5225;SDS011;2632;51.666;7.146;2023-02-26T11:58:36;1.20;;;1.10;;
5225;SDS011;2632;51.666;7.146;2023-02-26T12:01:06;1.73;;;0.80;;
5225;SDS011;2632;51.666;7.146;2023-02-26T12:03:35;1.03;;;0.73;;
5225;SDS011;2632;51.666;7.146;2023-02-26T12:06:06;1.37;;;0.97;;
5225;SDS011;2632;51.666;7.146;2023-02-26T12:08:42;1.03;;;0.80;;
5225;SDS011;2632;51.666;7.146;2023-02-26T12:19:48;1.43;;;0.60;;
5225;SDS011;2632;51.666;7.146;2023-02-26T12:28:05;0.70;;;0.70;;
5225;SDS011;2632;51.666;7.146;2023-02-26T12:33:54;0.93;;;0.70;;
5225;SDS011;2632;51.666;7.146;2023-02-26T12:36:30;1.23;;;0.70;;
5225;SDS011;2632;51.666;7.146;2023-02-26T12:39:31;1.47;;;0.60;;
5225;SDS011;2632;51.666;7.146;2023-02-26T12:42:17;0.60;;;0.60;;
5225;SDS011;2632;51.666;7.146;2023-02-26T12:45:17;0.90;;;0.60;;
5225;SDS011;2632;51.666;7.146;2023-02-26T12:47:58;1.80;;;0.70;;
5225;SDS011;2632;51.666;7.146;2023-02-26T13:07:46;1.00;;;0.90;;
5225;SDS011;2632;51.666;7.146;2023-02-26T13:21:13;1.30;;;0.50;;
5225;SDS011;2632;51.666;7.146;2023-02-26T13:23:55;2.53;;;0.63;;
5225;SDS011;2632;51.666;7.146;2023-02-26T13:26:25;2.20;;;0.80;;
5225;SDS011;2632;51.666;7.146;2023-02-26T13:29:04;1.77;;;1.40;;
5225;SDS011;2632;51.666;7.146;2023-02-26T13:34:33;3.43;;;1.70;;
5225;SDS011;2632;51.666;7.146;2023-02-26T13:43:01;1.03;;;0.83;;
5225;SDS011;2632;51.666;7.146;2023-02-26T13:51:08;2.07;;;1.13;;
5225;SDS011;2632;51.666;7.146;2023-02-26T13:58:39;1.30;;;0.90;;
5225;SDS011;2632;51.666;7.146;2023-02-26T14:03:52;2.27;;;0.80;;
5225;SDS011;2632;51.666;7.146;2023-02-26T14:06:44;2.37;;;0.90;;
5225;SDS011;2632;51.666;7.146;2023-02-26T14:17:27;1.93;;;0.80;;
5225;SDS011;2632;51.666;7.146;2023-02-26T14:27:30;5.70;;;0.80;;
5225;SDS011;2632;51.666;7.146;2023-02-26T14:29:58;1.20;;;0.70;;
5225;SDS011;2632;51.666;7.146;2023-02-26T14:32:53;1.27;;;0.70;;
5225;SDS011;2632;51.666;7.146;2023-02-26T14:35:24;3.93;;;1.20;;
5225;SDS011;2632;51.666;7.146;2023-02-26T14:38:36;4.10;;;1.60;;
5225;SDS011;2632;51.666;7.146;2023-02-26T14:40:54;3.67;;;0.90;;
5225;SDS011;2632;51.666;7.146;2023-02-26T14:43:40;2.43;;;1.20;;
5225;SDS011;2632;51.666;7.146;2023-02-26T14:46:09;1.53;;;1.10;;
5225;SDS011;2632;51.666;7.146;2023-02-26T14:48:37;3.00;;;1.10;;
5225;SDS011;2632;51.666;7.146;2023-02-26T14:51:20;3.00;;;1.30;;
5225;SDS011;2632;51.666;7.146;2023-02-26T14:56:53;1.87;;;1.30;;
5225;SDS011;2632;51.666;7.146;2023-02-26T15:02:04;0.80;;;0.70;;
5225;SDS011;2632;51.666;7.146;2023-02-26T15:08:10;2.40;;;1.20;;
5225;SDS011;2632;51.666;7.146;2023-02-26T15:13:46;1.30;;;1.20;;
5225;SDS011;2632;51.666;7.146;2023-02-26T15:22:01;2.93;;;0.93;;
5225;SDS011;2632;51.666;7.146;2023-02-26T15:24:35;2.20;;;1.10;;
5225;SDS011;2632;51.666;7.146;2023-02-26T15:27:02;1.67;;;1.23;;
5225;SDS011;2632;51.666;7.146;2023-02-26T15:29:33;2.60;;;1.17;;
5225;SDS011;2632;51.666;7.146;2023-02-26T15:32:13;7.07;;;1.10;;
5225;SDS011;2632;51.666;7.146;2023-02-26T15:34:47;2.83;;;1.27;;
5225;SDS011;2632;51.666;7.146;2023-02-26T15:37:21;1.77;;;1.07;;
5225;SDS011;2632;51.666;7.146;2023-02-26T15:39:51;1.73;;;0.80;;
5225;SDS011;2632;51.666;7.146;2023-02-26T15:42:20;1.40;;;0.90;;
5225;SDS011;2632;51.666;7.146;2023-02-26T15:44:50;1.60;;;1.10;;
5225;SDS011;2632;51.666;7.146;2023-02-26T15:47:22;1.27;;;1.00;;
5225;SDS011;2632;51.666;7.146;2023-02-26T15:49:49;1.30;;;1.10;;
5225;SDS011;2632;51.666;7.146;2023-02-26T15:52:20;2.00;;;1.00;;
5225;SDS011;2632;51.666;7.146;2023-02-26T15:54:49;2.40;;;0.87;;
5225;SDS011;2632;51.666;7.146;2023-02-26T15:57:20;1.57;;;1.47;;
5225;SDS011;2632;51.666;7.146;2023-02-26T15:59:50;2.97;;;1.63;;
5225;SDS011;2632;51.666;7.146;2023-02-26T16:02:19;1.47;;;1.13;;
5225;SDS011;2632;51.666;7.146;2023-02-26T16:04:49;3.53;;;1.40;;
5225;SDS011;2632;51.666;7.146;2023-02-26T16:07:18;4.50;;;2.30;;
5225;SDS011;2632;51.666;7.146;2023-02-26T16:09:46;5.80;;;2.60;;
5225;SDS011;2632;51.666;7.146;2023-02-26T16:12:16;1.73;;;1.40;;
5225;SDS011;2632;51.666;7.146;2023-02-26T16:14:46;4.73;;;2.60;;
5225;SDS011;2632;51.666;7.146;2023-02-26T16:17:21;1.93;;;1.40;;
5225;SDS011;2632;51.666;7.146;2023-02-26T16:20:03;7.67;;;3.67;;
5225;SDS011;2632;51.666;7.146;2023-02-26T16:22:36;1.47;;;1.17;;
5225;SDS011;2632;51.666;7.146;2023-02-26T16:25:22;6.40;;;2.27;;
5225;SDS011;2632;51.666;7.146;2023-02-26T16:28:04;1.83;;;1.10;;
5225;SDS011;2632;51.666;7.146;2023-02-26T16:30:38;3.53;;;1.63;;
5225;SDS011;2632;51.666;7.146;2023-02-26T16:33:15;2.30;;;1.40;;
5225;SDS011;2632;51.666;7.146;2023-02-26T16:35:44;2.37;;;2.00;;
5225;SDS011;2632;51.666;7.146;2023-02-26T16:38:26;3.77;;;1.90;;
5225;SDS011;2632;51.666;7.146;2023-02-26T16:40:57;3.00;;;1.60;;
5225;SDS011;2632;51.666;7.146;2023-02-26T16:43:31;4.47;;;2.30;;
5225;SDS011;2632;51.666;7.146;2023-02-26T16:46:19;3.10;;;1.80;;
5225;SDS011;2632;51.666;7.146;2023-02-26T16:48:55;6.17;;;2.90;;
5225;SDS011;2632;51.666;7.146;2023-02-26T16:51:26;4.93;;;2.73;;
5225;SDS011;2632;51.666;7.146;2023-02-26T16:53:57;4.83;;;2.90;;
5225;SDS011;2632;51.666;7.146;2023-02-26T16:56:31;1.90;;;1.67;;
5225;SDS011;2632;51.666;7.146;2023-02-26T16:59:04;3.83;;;2.10;;
5225;SDS011;2632;51.666;7.146;2023-02-26T17:01:38;3.60;;;1.80;;
5225;SDS011;2632;51.666;7.146;2023-02-26T17:04:13;6.80;;;3.07;;
5225;SDS011;2632;51.666;7.146;2023-02-26T17:06:42;5.43;;;2.80;;
5225;SDS011;2632;51.666;7.146;2023-02-26T17:12:06;2.30;;;1.90;;
5225;SDS011;2632;51.666;7.146;2023-02-26T17:14:51;3.00;;;2.37;;
5225;SDS011;2632;51.666;7.146;2023-02-26T17:17:20;4.93;;;3.07;;
5225;SDS011;2632;51.666;7.146;2023-02-26T17:19:47;3.80;;;3.00;;
5225;SDS011;2632;51.666;7.146;2023-02-26T17:22:14;3.50;;;2.23;;
5225;SDS011;2632;51.666;7.146;2023-02-26T17:24:44;3.17;;;2.60;;
5225;SDS011;2632;51.666;7.146;2023-02-26T17:27:13;4.47;;;2.27;;
5225;SDS011;2632;51.666;7.146;2023-02-26T17:29:43;3.93;;;2.10;;
5225;SDS011;2632;51.666;7.146;2023-02-26T17:32:18;7.20;;;1.97;;
5225;SDS011;2632;51.666;7.146;2023-02-26T17:34:47;1.67;;;1.33;;
5225;SDS011;2632;51.666;7.146;2023-02-26T17:37:14;6.00;;;1.10;;
5225;SDS011;2632;51.666;7.146;2023-02-26T17:39:41;2.17;;;1.23;;
5225;SDS011;2632;51.666;7.146;2023-02-26T17:42:10;5.30;;;1.50;;
5225;SDS011;2632;51.666;7.146;2023-02-26T17:44:38;6.33;;;1.27;;
5225;SDS011;2632;51.666;7.146;2023-02-26T17:47:05;1.73;;;1.43;;
5225;SDS011;2632;51.666;7.146;2023-02-26T17:49:32;4.30;;;2.43;;
5225;SDS011;2632;51.666;7.146;2023-02-26T17:51:58;1.30;;;1.20;;
5225;SDS011;2632;51.666;7.146;2023-02-26T17:54:25;3.63;;;3.03;;
5225;SDS011;2632;51.666;7.146;2023-02-26T17:56:52;10.13;;;3.97;;
5225;SDS011;2632;51.666;7.146;2023-02-26T17:59:18;5.47;;;3.20;;
5225;SDS011;2632;51.666;7.146;2023-02-26T18:01:45;4.60;;;3.77;;
5225;SDS011;2632;51.666;7.146;2023-02-26T18:04:12;2.60;;;2.40;;
5225;SDS011;2632;51.666;7.146;2023-02-26T18:06:38;3.87;;;3.20;;
5225;SDS011;2632;51.666;7.146;2023-02-26T18:09:05;4.00;;;2.50;;
5225;SDS011;2632;51.666;7.146;2023-02-26T18:11:32;2.63;;;2.30;;
5225;SDS011;2632;51.666;7.146;2023-02-26T18:13:59;2.37;;;2.07;;
5225;SDS011;2632;51.666;7.146;2023-02-26T18:16:32;2.07;;;1.60;;
5225;SDS011;2632;51.666;7.146;2023-02-26T18:19:05;2.27;;;1.90;;
5225;SDS011;2632;51.666;7.146;2023-02-26T18:21:32;3.53;;;3.00;;
5225;SDS011;2632;51.666;7.146;2023-02-26T18:23:59;4.50;;;3.23;;
5225;SDS011;2632;51.666;7.146;2023-02-26T18:26:26;3.33;;;2.60;;
5225;SDS011;2632;51.666;7.146;2023-02-26T18:28:56;8.13;;;3.70;;
5225;SDS011;2632;51.666;7.146;2023-02-26T18:31:24;15.77;;;8.40;;